createdAt,value
2023-01-13T00:02:11.212Z,13.10
2023-01-13T00:04:43.011Z,11.70
2023-01-13T00:07:14.861Z,10.00
2023-01-13T00:09:46.623Z,11.40
2023-01-13T00:12:18.375Z,10.50
2023-01-13T00:14:50.070Z,13.50
2023-01-13T00:17:23.039Z,12.10
2023-01-13T00:19:55.080Z,11.60
2023-01-13T00:22:26.673Z,8.50
2023-01-13T00:25:01.594Z,9.70
2023-01-13T00:27:33.552Z,12.90
2023-01-13T00:30:06.961Z,12.00
2023-01-13T00:32:38.842Z,10.90
2023-01-13T00:35:10.654Z,11.00
2023-01-13T00:37:42.365Z,10.80
2023-01-13T00:40:14.410Z,11.20
2023-01-13T00:43:04.528Z,10.20
2023-01-13T00:45:39.315Z,11.30
2023-01-13T00:48:11.413Z,9.60
2023-01-13T00:50:43.169Z,11.50
2023-01-13T00:53:15.181Z,10.70
2023-01-13T00:55:46.969Z,11.40
2023-01-13T00:58:18.645Z,13.70
2023-01-13T01:00:50.372Z,10.00
2023-01-13T01:03:24.896Z,9.30
2023-01-13T01:05:57.517Z,10.00
2023-01-13T01:08:29.186Z,11.80
2023-01-13T01:11:08.774Z,11.90
2023-01-13T01:13:41.767Z,13.20
2023-01-13T01:16:17.086Z,9.80
2023-01-13T01:18:50.876Z,11.80
2023-01-13T01:23:55.843Z,13.00
2023-01-13T01:26:29.185Z,12.80
2023-01-13T01:29:02.446Z,11.40
2023-01-13T01:31:34.273Z,11.20
2023-01-13T01:34:06.098Z,12.90
2023-01-13T01:36:39.268Z,10.60
2023-01-13T01:39:11.505Z,15.00
2023-01-13T01:42:03.138Z,12.40
2023-01-13T01:45:00.412Z,14.10
2023-01-13T01:47:32.827Z,11.50
2023-01-13T01:50:04.927Z,14.60
2023-01-13T01:52:42.169Z,12.30
2023-01-13T01:55:21.604Z,12.90
2023-01-13T01:57:53.259Z,11.10
2023-01-13T02:00:29.465Z,10.20
2023-01-13T02:03:01.780Z,12.40
2023-01-13T02:05:34.591Z,12.20
2023-01-13T02:08:09.960Z,12.10
2023-01-13T02:10:45.756Z,9.30
2023-01-13T02:13:17.494Z,10.60
2023-01-13T02:16:09.141Z,11.50
2023-01-13T02:19:07.829Z,14.20
2023-01-13T02:21:39.799Z,11.70
2023-01-13T02:24:54.084Z,11.10
2023-01-13T02:30:59.551Z,9.50
2023-01-13T02:33:42.750Z,9.30
2023-01-13T02:36:33.366Z,9.00
2023-01-13T02:39:17.379Z,8.30
2023-01-13T02:44:48.168Z,9.90
2023-01-13T02:47:26.590Z,10.00
2023-01-13T02:50:07.284Z,10.10
2023-01-13T02:52:59.183Z,9.30
2023-01-13T02:55:39.257Z,7.90
2023-01-13T02:58:19.081Z,8.90
2023-01-13T03:00:51.454Z,8.20
2023-01-13T03:03:23.389Z,10.10
2023-01-13T03:06:17.132Z,7.70
2023-01-13T03:08:55.084Z,9.00
2023-01-13T03:11:35.085Z,8.80
2023-01-13T03:14:34.440Z,9.30
2023-01-13T03:17:27.133Z,6.20
2023-01-13T03:20:13.045Z,6.70
2023-01-13T03:22:52.465Z,6.20
2023-01-13T03:25:32.386Z,7.20
2023-01-13T03:28:08.736Z,6.10
2023-01-13T03:30:50.350Z,6.40
2023-01-13T03:33:27.014Z,7.10
2023-01-13T03:36:13.082Z,6.00
2023-01-13T03:38:54.214Z,5.90
2023-01-13T03:41:43.253Z,5.60
2023-01-13T03:44:58.366Z,6.30
2023-01-13T03:47:54.342Z,7.20
2023-01-13T03:50:34.463Z,6.80
2023-01-13T03:53:17.357Z,6.20
2023-01-13T03:56:01.764Z,5.20
2023-01-13T03:58:39.911Z,5.20
2023-01-13T04:01:47.831Z,5.40
2023-01-13T04:05:09.759Z,5.10
2023-01-13T04:08:04.322Z,4.90
2023-01-13T04:11:06.701Z,5.20
2023-01-13T04:13:47.986Z,6.50
2023-01-13T04:16:28.489Z,4.60
2023-01-13T04:19:40.005Z,4.60
2023-01-13T04:22:50.339Z,4.60
2023-01-13T04:25:29.897Z,5.70
2023-01-13T04:28:04.081Z,6.30
2023-01-13T04:30:45.648Z,5.10
2023-01-13T04:33:23.247Z,5.00
2023-01-13T04:36:06.446Z,4.90
2023-01-13T04:38:38.685Z,5.70
2023-01-13T04:41:12.254Z,6.50
2023-01-13T04:43:47.245Z,5.40
2023-01-13T04:46:19.227Z,7.10
2023-01-13T04:49:11.748Z,5.60
2023-01-13T04:52:13.657Z,5.70
2023-01-13T04:54:55.782Z,4.40
2023-01-13T04:57:52.479Z,4.60
2023-01-13T05:00:49.572Z,4.90
2023-01-13T05:04:21.891Z,4.30
2023-01-13T05:10:19.675Z,5.60
2023-01-13T05:13:10.069Z,4.50
2023-01-13T05:16:01.891Z,5.00
2023-01-13T05:18:33.915Z,4.50
2023-01-13T05:21:25.606Z,4.70
2023-01-13T05:24:15.983Z,5.70
2023-01-13T05:26:47.739Z,4.60
2023-01-13T05:29:19.399Z,4.10
2023-01-13T05:31:51.045Z,8.20
2023-01-13T05:34:22.700Z,6.30
2023-01-13T05:36:54.319Z,6.30
2023-01-13T05:39:27.964Z,7.80
2023-01-13T05:44:50.210Z,4.10
2023-01-13T05:47:21.881Z,4.00
2023-01-13T05:49:53.521Z,4.00
2023-01-13T05:52:27.536Z,4.00
2023-01-13T05:54:59.351Z,5.10
2023-01-13T05:57:31.160Z,5.30
2023-01-13T06:00:04.678Z,6.70
2023-01-13T06:02:36.421Z,4.70
2023-01-13T06:05:08.814Z,4.60
2023-01-13T06:07:43.136Z,5.50
2023-01-13T06:10:14.788Z,4.30
2023-01-13T06:12:46.425Z,4.20
2023-01-13T06:15:19.043Z,3.90
2023-01-13T06:17:50.848Z,4.90
2023-01-13T06:20:23.226Z,6.50
2023-01-13T06:22:55.128Z,6.40
2023-01-13T06:25:26.665Z,7.00
2023-01-13T06:28:00.241Z,6.60
2023-01-13T06:30:39.303Z,5.60
2023-01-13T06:33:15.608Z,6.30
2023-01-13T06:35:54.089Z,6.60
2023-01-13T06:38:27.937Z,6.60
2023-01-13T06:40:59.707Z,10.20
2023-01-13T06:43:31.326Z,10.80
2023-01-13T06:46:05.273Z,11.70
2023-01-13T06:48:37.068Z,12.00
2023-01-13T06:51:08.719Z,23.10
2023-01-13T06:53:42.673Z,16.40
2023-01-13T06:56:14.377Z,14.70
2023-01-13T06:58:46.173Z,15.30
2023-01-13T07:01:18.154Z,7.40
2023-01-13T07:03:49.908Z,8.10
2023-01-13T07:06:21.923Z,10.50
2023-01-13T07:08:54.816Z,11.30
2023-01-13T07:11:54.870Z,13.50
2023-01-13T07:14:47.896Z,11.10
2023-01-13T07:17:33.409Z,10.40
2023-01-13T07:20:06.261Z,10.80
2023-01-13T07:22:39.243Z,8.50
2023-01-13T07:25:11.469Z,9.80
2023-01-13T07:27:44.424Z,8.10
2023-01-13T07:30:17.411Z,5.80
2023-01-13T07:32:49.223Z,6.10
2023-01-13T07:35:23.591Z,5.40
2023-01-13T07:38:00.472Z,6.10
2023-01-13T07:40:33.476Z,6.20
2023-01-13T07:43:24.599Z,8.20
2023-01-13T07:45:58.843Z,7.50
2023-01-13T07:48:34.924Z,8.20
2023-01-13T07:51:10.261Z,8.20
2023-01-13T07:53:42.014Z,9.10
2023-01-13T07:56:13.979Z,11.00
2023-01-13T07:58:55.735Z,11.00
2023-01-13T08:01:29.534Z,9.00
2023-01-13T08:04:02.403Z,10.50
2023-01-13T08:06:34.371Z,12.20
2023-01-13T08:09:06.189Z,15.50
2023-01-13T08:11:38.198Z,13.10
2023-01-13T08:14:10.028Z,12.00
2023-01-13T08:16:41.832Z,11.60
2023-01-13T08:19:13.625Z,10.70
2023-01-13T08:21:45.284Z,12.80
2023-01-13T08:24:18.969Z,10.00
2023-01-13T08:26:50.797Z,7.90
2023-01-13T08:29:22.611Z,7.80
2023-01-13T08:31:55.161Z,7.20
2023-01-13T08:34:27.543Z,7.00
2023-01-13T08:37:14.990Z,8.10
2023-01-13T08:39:47.543Z,12.60
2023-01-13T08:42:19.566Z,13.70
2023-01-13T08:44:53.068Z,10.90
2023-01-13T08:47:28.002Z,9.80
2023-01-13T08:49:59.944Z,9.20
2023-01-13T08:52:32.704Z,9.60
2023-01-13T08:55:05.659Z,10.50
2023-01-13T08:57:37.924Z,8.00
2023-01-13T09:00:11.129Z,10.10
2023-01-13T09:02:42.929Z,8.40
2023-01-13T09:05:16.911Z,8.70
2023-01-13T09:07:51.866Z,9.90
2023-01-13T09:10:23.598Z,8.00
2023-01-13T09:13:13.807Z,8.30
2023-01-13T09:15:46.309Z,8.80
2023-01-13T09:18:18.524Z,11.60
2023-01-13T09:20:50.849Z,9.30
2023-01-13T09:23:22.965Z,11.10
2023-01-13T09:25:54.603Z,10.80
2023-01-13T09:28:26.400Z,10.00
2023-01-13T09:31:02.785Z,7.70
2023-01-13T09:33:54.929Z,7.10
2023-01-13T09:36:26.625Z,9.00
2023-01-13T09:38:59.871Z,8.10
2023-01-13T09:41:55.918Z,8.60
2023-01-13T09:44:42.271Z,9.30
2023-01-13T09:47:26.172Z,8.10
2023-01-13T09:50:37.549Z,8.90
2023-01-13T09:53:18.109Z,7.80
2023-01-13T09:55:50.131Z,7.80
2023-01-13T09:58:22.038Z,8.40
2023-01-13T10:01:11.941Z,8.40
2023-01-13T10:03:44.189Z,8.50
2023-01-13T10:06:31.649Z,7.80
2023-01-13T10:09:03.888Z,8.00
2023-01-13T10:12:01.131Z,9.10
2023-01-13T10:14:59.494Z,7.70
2023-01-13T10:18:02.925Z,6.60
2023-01-13T10:20:40.898Z,6.60
2023-01-13T10:23:34.814Z,7.30
2023-01-13T10:26:37.194Z,7.40
2023-01-13T10:29:21.111Z,7.60
2023-01-13T10:31:59.586Z,7.70
2023-01-13T10:34:31.762Z,5.00
2023-01-13T10:37:07.315Z,4.90
2023-01-13T10:39:45.157Z,5.00
2023-01-13T10:42:39.930Z,5.10
2023-01-13T10:45:26.185Z,3.70
2023-01-13T10:48:13.326Z,4.60
2023-01-13T10:50:48.848Z,3.30
2023-01-13T10:53:25.841Z,3.70
2023-01-13T10:56:04.361Z,3.30
2023-01-13T10:58:36.855Z,2.70
2023-01-13T11:01:21.603Z,3.30
2023-01-13T11:03:58.380Z,2.40
2023-01-13T11:06:31.278Z,2.90
2023-01-13T11:09:04.187Z,5.70
2023-01-13T11:11:44.727Z,3.80
2023-01-13T11:14:43.352Z,3.60
2023-01-13T11:17:47.023Z,4.70
2023-01-13T11:20:32.484Z,3.90
2023-01-13T11:23:44.223Z,4.30
2023-01-13T11:26:29.745Z,4.70
2023-01-13T11:29:11.100Z,4.10
2023-01-13T11:31:52.368Z,4.70
2023-01-13T11:34:32.750Z,5.00
2023-01-13T11:37:15.157Z,6.80
2023-01-13T11:40:04.306Z,10.10
2023-01-13T11:43:07.319Z,12.40
2023-01-13T11:45:49.729Z,12.20
2023-01-13T11:48:27.121Z,8.30
2023-01-13T11:51:14.152Z,9.20
2023-01-13T11:54:01.120Z,8.90
2023-01-13T11:56:55.004Z,8.60
2023-01-13T11:59:45.438Z,7.20
2023-01-13T12:02:36.369Z,6.80
2023-01-13T12:05:38.294Z,5.40
2023-01-13T12:08:19.451Z,6.10
2023-01-13T12:11:27.921Z,4.00
2023-01-13T12:14:12.173Z,8.80
2023-01-13T12:16:49.649Z,5.80
2023-01-13T12:19:32.611Z,10.00
2023-01-13T12:22:20.719Z,7.60
2023-01-13T12:25:25.207Z,7.70
2023-01-13T12:28:21.138Z,7.10
2023-01-13T12:31:04.342Z,7.40
2023-01-13T12:34:13.422Z,8.60
2023-01-13T12:37:33.535Z,8.10
2023-01-13T12:40:20.537Z,6.50
2023-01-13T12:43:26.043Z,5.90
2023-01-13T12:46:19.420Z,6.70
2023-01-13T12:48:57.341Z,6.50
2023-01-13T12:51:33.974Z,8.30
2023-01-13T12:54:37.814Z,5.00
2023-01-13T12:57:32.196Z,4.30
2023-01-13T13:03:05.121Z,6.00
2023-01-13T13:06:02.230Z,5.90
2023-01-13T13:09:01.125Z,6.10
2023-01-13T13:11:54.994Z,7.20
2023-01-13T13:15:04.222Z,8.60
2023-01-13T13:17:36.133Z,7.10
2023-01-13T13:20:46.442Z,8.40
2023-01-13T13:23:33.185Z,7.80
2023-01-13T13:26:17.757Z,7.90
2023-01-13T13:29:05.943Z,8.10
2023-01-13T13:31:59.089Z,8.80
2023-01-13T13:34:45.802Z,6.90
2023-01-13T13:37:32.114Z,9.00
2023-01-13T13:40:47.826Z,10.00
2023-01-13T13:43:39.472Z,12.80
2023-01-13T13:46:47.542Z,10.20
2023-01-13T13:49:36.844Z,9.60
2023-01-13T13:52:17.516Z,9.20
2023-01-13T13:54:52.916Z,14.10
2023-01-13T13:57:38.623Z,21.60
2023-01-13T14:00:30.939Z,11.90
2023-01-13T14:03:31.678Z,14.50
2023-01-13T14:06:07.476Z,9.90
2023-01-13T14:08:46.634Z,12.00
2023-01-13T14:11:28.001Z,8.40
2023-01-13T14:14:14.560Z,11.50
2023-01-13T14:16:46.889Z,10.50
2023-01-13T14:19:28.420Z,9.50
2023-01-13T14:22:02.447Z,7.80
2023-01-13T14:24:34.369Z,12.90
2023-01-13T14:27:16.774Z,11.90
2023-01-13T14:29:49.300Z,8.00
2023-01-13T14:32:26.152Z,12.20
2023-01-13T14:34:58.191Z,8.10
2023-01-13T14:37:39.405Z,9.90
2023-01-13T14:40:33.213Z,12.00
2023-01-13T14:43:14.647Z,13.50
2023-01-13T14:45:59.421Z,15.40
2023-01-13T14:48:35.960Z,13.20
2023-01-13T14:51:11.761Z,12.80
2023-01-13T14:53:47.193Z,12.90
2023-01-13T14:56:50.975Z,13.20
2023-01-13T14:59:56.252Z,12.50
2023-01-13T15:02:30.848Z,11.90
2023-01-13T15:05:19.053Z,14.80
2023-01-13T15:07:56.633Z,16.60
2023-01-13T15:10:50.980Z,14.40
2023-01-13T15:13:39.029Z,17.00
2023-01-13T15:16:25.283Z,15.30
2023-01-13T15:18:58.809Z,16.80
2023-01-13T15:21:30.399Z,19.80
2023-01-13T15:24:02.093Z,22.40
2023-01-13T15:26:35.294Z,22.30
2023-01-13T15:29:14.170Z,18.40
2023-01-13T15:31:45.820Z,18.40
2023-01-13T15:34:17.378Z,15.80
2023-01-13T15:36:48.964Z,13.40
2023-01-13T15:39:20.669Z,13.50
2023-01-13T15:42:10.935Z,14.60
2023-01-13T15:45:01.116Z,18.10
2023-01-13T15:47:32.731Z,19.30
2023-01-13T15:50:04.710Z,18.00
2023-01-13T15:52:36.425Z,16.70
2023-01-13T15:55:16.521Z,17.60
2023-01-13T15:57:53.099Z,19.70
2023-01-13T16:00:25.722Z,17.10
2023-01-13T16:02:57.696Z,11.30
2023-01-13T16:05:29.536Z,10.20
2023-01-13T16:08:01.167Z,9.90
2023-01-13T16:10:32.817Z,9.10
2023-01-13T16:13:04.432Z,13.00
2023-01-13T16:15:37.356Z,11.10
2023-01-13T16:18:20.190Z,14.10
2023-01-13T16:20:55.348Z,12.70
2023-01-13T16:23:27.034Z,15.30
2023-01-13T16:25:58.608Z,17.40
2023-01-13T16:28:30.244Z,17.40
2023-01-13T16:31:33.974Z,14.80
2023-01-13T16:34:06.122Z,15.40
2023-01-13T16:36:38.289Z,16.30
2023-01-13T16:39:21.197Z,20.90
2023-01-13T16:41:53.245Z,19.70
2023-01-13T16:44:24.938Z,21.60
2023-01-13T16:46:56.610Z,21.80
2023-01-13T16:49:28.263Z,22.50
2023-01-13T16:51:59.912Z,20.20
2023-01-13T16:54:31.708Z,40.20
2023-01-13T16:57:03.528Z,28.30
2023-01-13T16:59:35.275Z,23.40
2023-01-13T17:02:15.029Z,23.40
2023-01-13T17:04:46.844Z,18.80
2023-01-13T17:07:18.891Z,23.60
2023-01-13T17:09:50.460Z,20.20
2023-01-13T17:12:22.138Z,20.70
2023-01-13T17:14:53.944Z,20.00
2023-01-13T17:17:27.687Z,16.80
2023-01-13T17:20:00.399Z,16.20
2023-01-13T17:22:32.720Z,15.20
2023-01-13T17:25:04.919Z,18.80
2023-01-13T17:27:37.301Z,17.60
2023-01-13T17:30:11.066Z,20.90
2023-01-13T17:35:19.149Z,16.90
2023-01-13T17:37:52.775Z,24.80
2023-01-13T17:42:57.495Z,14.70
2023-01-13T17:45:29.399Z,13.60
2023-01-13T17:48:03.560Z,19.10
2023-01-13T17:50:35.246Z,16.00
2023-01-13T17:53:07.104Z,11.60
2023-01-13T17:55:38.821Z,12.40
2023-01-13T17:58:10.823Z,10.90
2023-01-13T18:00:42.565Z,11.30
2023-01-13T18:03:14.655Z,12.80
2023-01-13T18:05:47.258Z,23.50
2023-01-13T18:08:19.795Z,24.50
2023-01-13T18:10:52.882Z,22.10
2023-01-13T18:13:24.885Z,18.10
2023-01-13T18:16:08.426Z,15.30
2023-01-13T18:18:42.386Z,16.90
2023-01-13T18:21:46.517Z,17.60
2023-01-13T18:24:36.591Z,16.40
2023-01-13T18:27:23.202Z,15.30
2023-01-13T18:29:57.913Z,17.60
2023-01-13T18:32:32.993Z,20.10
2023-01-13T18:35:10.339Z,17.90
2023-01-13T18:38:07.358Z,16.90
2023-01-13T18:40:39.329Z,16.40
2023-01-13T18:43:21.458Z,17.70
2023-01-13T18:46:33.202Z,14.90
2023-01-13T18:49:05.280Z,12.40
2023-01-13T18:51:38.390Z,12.90
2023-01-13T18:54:10.380Z,11.20
2023-01-13T18:56:42.834Z,12.50
2023-01-13T18:59:16.491Z,12.40
2023-01-13T19:04:26.585Z,11.00
2023-01-13T19:07:27.655Z,12.70
2023-01-13T19:10:21.687Z,11.20
2023-01-13T19:13:01.859Z,12.50
2023-01-13T19:15:39.411Z,10.50
2023-01-13T19:18:13.653Z,14.10
2023-01-13T19:20:46.916Z,13.00
2023-01-13T19:23:19.544Z,18.10
2023-01-13T19:26:12.219Z,15.80
2023-01-13T19:28:52.091Z,14.60
2023-01-13T19:31:44.220Z,16.00
2023-01-13T19:34:24.208Z,12.50
2023-01-13T19:36:56.061Z,18.90
2023-01-13T19:39:29.620Z,16.70
2023-01-13T19:42:21.108Z,22.20
2023-01-13T19:45:11.661Z,18.50
2023-01-13T19:47:46.600Z,18.30
2023-01-13T19:50:18.379Z,14.50
2023-01-13T19:52:50.032Z,15.80
2023-01-13T19:55:22.685Z,11.60
2023-01-13T19:57:54.669Z,13.30
2023-01-13T20:00:26.446Z,17.10
2023-01-13T20:03:03.287Z,16.30
2023-01-13T20:05:35.131Z,12.20
2023-01-13T20:08:09.076Z,12.80
2023-01-13T20:10:41.522Z,13.60
2023-01-13T20:13:13.524Z,12.70
2023-01-13T20:15:45.941Z,14.30
2023-01-13T20:18:17.669Z,15.20
2023-01-13T20:20:49.335Z,15.60
2023-01-13T20:23:21.086Z,16.30
2023-01-13T20:25:52.913Z,14.80
2023-01-13T20:28:24.499Z,17.70
2023-01-13T20:30:56.719Z,18.00
2023-01-13T20:33:28.429Z,14.60
2023-01-13T20:36:00.074Z,18.10
2023-01-13T20:38:39.250Z,21.70
2023-01-13T20:41:31.902Z,17.30
2023-01-13T20:44:04.456Z,20.20
2023-01-13T20:46:36.063Z,18.10
2023-01-13T20:49:13.413Z,19.00
2023-01-13T20:51:45.170Z,14.30
2023-01-13T20:54:17.878Z,19.70
2023-01-13T20:56:53.982Z,17.00
2023-01-13T20:59:25.862Z,18.50
2023-01-13T21:01:57.600Z,15.80
2023-01-13T21:04:29.601Z,15.70
2023-01-13T21:07:01.329Z,11.20
2023-01-13T21:09:39.331Z,13.40
2023-01-13T21:12:34.804Z,12.80
2023-01-13T21:15:20.460Z,13.60
2023-01-13T21:18:10.862Z,15.90
2023-01-13T21:20:42.492Z,14.90
2023-01-13T21:23:14.090Z,13.30
2023-01-13T21:25:45.693Z,14.50
2023-01-13T21:28:17.583Z,15.10
2023-01-13T21:30:57.583Z,17.20
2023-01-13T21:33:30.161Z,16.80
2023-01-13T21:36:09.658Z,14.70
2023-01-13T21:38:41.484Z,16.70
2023-01-13T21:41:14.521Z,14.80
2023-01-13T21:44:04.923Z,13.70
2023-01-13T21:46:55.499Z,12.60
2023-01-13T21:49:27.366Z,15.00
2023-01-13T21:51:59.017Z,13.40
2023-01-13T21:54:31.124Z,16.90
2023-01-13T21:57:02.778Z,15.30
2023-01-13T21:59:34.919Z,15.50
2023-01-13T22:02:29.285Z,18.50
2023-01-13T22:05:03.935Z,10.50
2023-01-13T22:07:38.290Z,14.60
2023-01-13T22:10:14.653Z,12.80
2023-01-13T22:12:47.827Z,12.60
2023-01-13T22:15:20.149Z,17.30
2023-01-13T22:17:52.897Z,11.50
2023-01-13T22:20:24.798Z,9.30
2023-01-13T22:22:58.278Z,9.30
2023-01-13T22:25:30.383Z,9.60
2023-01-13T22:28:06.142Z,11.10
2023-01-13T22:30:39.239Z,13.00
2023-01-13T22:33:10.920Z,9.90
2023-01-13T22:35:42.845Z,12.70
2023-01-13T22:38:14.607Z,10.60
2023-01-13T22:40:46.417Z,9.50
2023-01-13T22:43:18.009Z,9.20
2023-01-13T22:46:09.128Z,10.70
2023-01-13T22:48:45.514Z,10.60
2023-01-13T22:51:18.919Z,11.30
2023-01-13T22:53:51.374Z,9.40
2023-01-13T22:56:25.218Z,9.30
2023-01-13T22:58:59.871Z,7.40
2023-01-13T23:01:36.007Z,10.70
2023-01-13T23:04:09.903Z,9.40
2023-01-13T23:06:41.701Z,10.50
2023-01-13T23:09:13.373Z,9.00
2023-01-13T23:12:02.613Z,11.60
2023-01-13T23:14:34.505Z,8.40
2023-01-13T23:17:07.530Z,8.20
2023-01-13T23:19:39.392Z,10.00
2023-01-13T23:22:11.061Z,6.60
2023-01-13T23:24:42.680Z,7.60
2023-01-13T23:27:14.485Z,8.50
2023-01-13T23:29:46.403Z,8.60
2023-01-13T23:32:17.991Z,7.10
2023-01-13T23:34:49.641Z,6.50
2023-01-13T23:37:21.462Z,8.10
2023-01-13T23:39:53.052Z,9.30
2023-01-13T23:42:24.950Z,8.00
2023-01-13T23:44:56.538Z,11.20
2023-01-13T23:47:28.571Z,8.00
2023-01-13T23:50:00.290Z,8.80
2023-01-13T23:52:32.112Z,10.40
2023-01-13T23:55:04.672Z,9.20
2023-01-13T23:57:36.198Z,8.00
